createdAt,value
2022-08-25T00:00:24.170Z,27.53
2022-08-25T00:02:57.749Z,27.89
2022-08-25T00:05:33.426Z,28.24
2022-08-25T00:08:03.052Z,28.38
2022-08-25T00:10:33.795Z,27.66
2022-08-25T00:13:06.977Z,27.98
2022-08-25T00:15:36.866Z,28.56
2022-08-25T00:18:11.503Z,28.31
2022-08-25T00:20:49.787Z,28.21
2022-08-25T00:23:19.071Z,28.45
2022-08-25T00:25:48.271Z,28.81
2022-08-25T00:28:19.319Z,28.87
2022-08-25T00:30:49.840Z,28.89
2022-08-25T00:33:19.548Z,28.30
2022-08-25T00:35:48.774Z,28.30
2022-08-25T00:38:18.145Z,28.91
2022-08-25T00:41:06.577Z,28.51
2022-08-25T00:43:47.839Z,28.72
2022-08-25T00:46:22.738Z,28.58
2022-08-25T00:48:57.994Z,28.74
2022-08-25T00:51:34.447Z,28.95
2022-08-25T00:54:04.544Z,29.34
2022-08-25T00:56:35.067Z,29.26
2022-08-25T00:59:06.839Z,29.38
2022-08-25T01:01:36.171Z,29.15
2022-08-25T01:04:05.870Z,29.59
2022-08-25T01:06:38.531Z,29.42
2022-08-25T01:09:08.846Z,29.32
2022-08-25T01:11:38.295Z,29.28
2022-08-25T01:14:10.163Z,29.68
2022-08-25T01:16:41.596Z,29.80
2022-08-25T01:19:15.438Z,29.96
2022-08-25T01:21:49.744Z,30.25
2022-08-25T01:24:25.161Z,30.58
2022-08-25T01:26:54.822Z,30.42
2022-08-25T01:29:25.740Z,30.56
2022-08-25T01:31:58.140Z,30.46
2022-08-25T01:34:32.063Z,30.49
2022-08-25T01:37:03.096Z,30.76
2022-08-25T01:39:36.821Z,30.75
2022-08-25T01:42:15.524Z,30.98
2022-08-25T01:44:46.623Z,31.18
2022-08-25T01:47:16.500Z,31.25
2022-08-25T01:49:45.965Z,31.43
2022-08-25T01:52:21.419Z,31.05
2022-08-25T01:54:51.357Z,31.28
2022-08-25T01:57:20.936Z,31.39
2022-08-25T01:59:50.354Z,31.73
2022-08-25T02:02:20.916Z,31.78
2022-08-25T02:04:50.718Z,32.02
2022-08-25T02:07:22.397Z,31.86
2022-08-25T02:09:51.587Z,31.83
2022-08-25T02:12:22.189Z,31.90
2022-08-25T02:15:12.114Z,31.76
2022-08-25T02:17:41.464Z,32.43
2022-08-25T02:20:11.369Z,32.25
2022-08-25T02:22:43.442Z,32.29
2022-08-25T02:25:20.862Z,32.42
2022-08-25T02:27:49.866Z,32.19
2022-08-25T02:30:19.461Z,32.67
2022-08-25T02:32:49.159Z,32.76
2022-08-25T02:35:18.750Z,32.66
2022-08-25T02:37:51.687Z,32.51
2022-08-25T02:40:24.788Z,32.58
2022-08-25T02:42:54.276Z,32.72
2022-08-25T02:45:23.295Z,32.75
2022-08-25T02:47:52.905Z,32.71
2022-08-25T02:50:22.309Z,32.80
2022-08-25T02:52:52.963Z,32.93
2022-08-25T02:55:23.915Z,32.46
2022-08-25T02:57:53.364Z,32.85
2022-08-25T03:00:22.570Z,32.91
2022-08-25T03:02:52.572Z,32.80
2022-08-25T03:05:22.858Z,33.26
2022-08-25T03:07:54.078Z,32.90
2022-08-25T03:10:24.427Z,32.58
2022-08-25T03:12:53.554Z,32.86
2022-08-25T03:15:26.212Z,32.76
2022-08-25T03:17:59.927Z,33.08
2022-08-25T03:20:29.867Z,33.04
2022-08-25T03:23:00.455Z,33.00
2022-08-25T03:25:47.266Z,32.69
2022-08-25T03:28:16.719Z,32.92
2022-08-25T03:30:45.839Z,32.99
2022-08-25T03:33:15.567Z,32.89
2022-08-25T03:35:45.412Z,32.85
2022-08-25T03:38:17.078Z,32.63
2022-08-25T03:40:46.477Z,32.75
2022-08-25T03:43:15.829Z,32.73
2022-08-25T03:45:47.984Z,32.85
2022-08-25T03:48:17.931Z,32.31
2022-08-25T03:50:50.580Z,32.31
2022-08-25T03:53:22.757Z,32.35
2022-08-25T03:55:52.293Z,34.22
2022-08-25T03:58:22.142Z,32.84
2022-08-25T04:00:51.866Z,33.79
2022-08-25T04:03:22.421Z,34.12
2022-08-25T04:05:51.512Z,33.04
2022-08-25T04:08:22.914Z,31.52
2022-08-25T04:10:53.635Z,31.04
2022-08-25T04:13:23.075Z,30.59
2022-08-25T04:15:52.773Z,30.71
2022-08-25T04:18:21.928Z,30.55
2022-08-25T04:20:51.785Z,30.56
2022-08-25T04:23:22.972Z,30.75
2022-08-25T04:25:52.294Z,29.73
2022-08-25T04:28:21.936Z,30.11
2022-08-25T04:30:52.132Z,29.85
2022-08-25T04:33:21.879Z,30.07
2022-08-25T04:35:53.248Z,29.95
2022-08-25T04:38:24.283Z,29.84
2022-08-25T04:40:58.394Z,29.84
2022-08-25T04:43:28.518Z,30.07
2022-08-25T04:45:58.615Z,29.84
2022-08-25T04:48:28.218Z,29.88
2022-08-25T04:50:58.012Z,29.58
2022-08-25T04:53:31.296Z,29.71
2022-08-25T04:56:03.876Z,29.40
2022-08-25T04:58:33.788Z,29.99
2022-08-25T05:01:07.478Z,29.36
2022-08-25T05:03:37.143Z,29.30
2022-08-25T05:06:07.287Z,28.70
2022-08-25T05:08:39.962Z,28.55
2022-08-25T05:11:10.472Z,28.78
2022-08-25T05:13:40.230Z,28.42
2022-08-25T05:16:11.445Z,28.90
2022-08-25T05:18:41.563Z,29.06
2022-08-25T05:21:15.314Z,28.50
2022-08-25T05:23:47.174Z,29.12
2022-08-25T05:26:20.657Z,29.29
2022-08-25T05:28:53.044Z,29.16
2022-08-25T05:31:26.402Z,29.67
2022-08-25T05:33:56.236Z,29.97
2022-08-25T05:36:28.064Z,29.55
2022-08-25T05:38:58.492Z,29.72
2022-08-25T05:41:31.281Z,29.50
2022-08-25T05:44:00.485Z,29.59
2022-08-25T05:46:31.809Z,29.76
2022-08-25T05:49:02.400Z,28.83
2022-08-25T05:51:35.489Z,29.43
2022-08-25T05:54:09.407Z,29.45
2022-08-25T05:56:41.347Z,28.71
2022-08-25T05:59:11.448Z,28.61
2022-08-25T06:01:59.380Z,28.91
2022-08-25T06:04:31.681Z,29.08
2022-08-25T06:07:03.258Z,28.72
2022-08-25T06:09:35.658Z,28.45
2022-08-25T06:12:05.762Z,28.13
2022-08-25T06:14:38.660Z,27.84
2022-08-25T06:17:08.293Z,26.95
2022-08-25T06:19:41.278Z,26.86
2022-08-25T06:22:10.831Z,26.52
2022-08-25T06:24:41.933Z,26.84
2022-08-25T06:27:10.988Z,25.87
2022-08-25T06:29:41.283Z,26.04
2022-08-25T06:32:12.931Z,25.63
2022-08-25T06:34:41.980Z,25.54
2022-08-25T06:37:12.076Z,25.70
2022-08-25T06:39:43.450Z,24.90
2022-08-25T06:42:14.407Z,23.29
2022-08-25T06:44:44.829Z,22.51
2022-08-25T06:47:15.893Z,21.50
2022-08-25T06:49:45.292Z,20.16
2022-08-25T06:52:15.488Z,20.47
2022-08-25T06:54:47.089Z,19.76
2022-08-25T06:57:18.650Z,19.15
2022-08-25T06:59:53.611Z,19.15
2022-08-25T07:02:23.115Z,18.43
2022-08-25T07:04:53.922Z,18.59
2022-08-25T07:07:23.268Z,18.19
2022-08-25T07:09:55.233Z,17.90
2022-08-25T07:12:25.109Z,18.02
2022-08-25T07:15:10.233Z,17.95
2022-08-25T07:17:49.577Z,17.62
2022-08-25T07:22:58.267Z,17.47
2022-08-25T07:25:30.255Z,16.97
2022-08-25T07:28:02.866Z,16.99
2022-08-25T07:30:34.235Z,17.23
2022-08-25T07:33:06.984Z,17.43
2022-08-25T07:35:38.030Z,16.73
2022-08-25T07:38:12.579Z,16.29
2022-08-25T07:40:54.688Z,16.88
2022-08-25T07:43:26.870Z,17.14
2022-08-25T07:45:56.182Z,16.92
2022-08-25T07:48:27.989Z,16.77
2022-08-25T07:50:58.289Z,15.96
2022-08-25T07:53:28.129Z,15.84
2022-08-25T07:55:59.021Z,15.89
2022-08-25T07:58:29.685Z,15.49
2022-08-25T08:00:59.742Z,15.85
2022-08-25T08:03:45.274Z,16.49
2022-08-25T08:06:20.350Z,14.65
2022-08-25T08:08:54.703Z,15.14
2022-08-25T08:11:33.331Z,14.97
2022-08-25T08:14:03.719Z,14.93
2022-08-25T08:16:35.138Z,14.94
2022-08-25T08:19:06.332Z,15.19
2022-08-25T08:21:37.408Z,14.63
2022-08-25T08:24:19.558Z,14.30
2022-08-25T08:27:01.169Z,14.24
2022-08-25T08:29:31.987Z,14.83
2022-08-25T08:32:01.839Z,14.66
2022-08-25T08:34:34.421Z,14.59
2022-08-25T08:37:05.520Z,14.55
2022-08-25T08:39:43.289Z,14.53
2022-08-25T08:42:38.356Z,14.60
2022-08-25T08:45:28.942Z,14.57
2022-08-25T08:48:10.228Z,13.64
2022-08-25T08:50:51.287Z,14.60
2022-08-25T08:53:24.953Z,14.22
2022-08-25T08:55:59.503Z,13.80
